sensor_id;sensor_type;location;lat;lon;timestamp;pressure;altitude;pressure_sealevel;temperature;humidity
48778;BME280;34578;0.000;0.000;2022-07-23T00:00:11;96677.34;;;22.04;61.43
48778;BME280;34578;0.000;0.000;2022-07-23T00:05:12;96689.22;;;22.05;61.28
48778;BME280;34578;0.000;0.000;2022-07-23T00:10:13;96683.91;;;22.20;61.95
48778;BME280;34578;0.000;0.000;2022-07-23T00:15:13;96675.97;;;22.37;61.31
48778;BME280;34578;0.000;0.000;2022-07-23T00:20:14;96675.31;;;22.26;61.19
48778;BME280;34578;0.000;0.000;2022-07-23T00:25:14;96686.53;;;22.17;61.37
48778;BME280;34578;0.000;0.000;2022-07-23T00:30:15;96709.53;;;22.13;61.63
48778;BME280;34578;0.000;0.000;2022-07-23T00:35:16;96714.69;;;22.08;61.23
48778;BME280;34578;0.000;0.000;2022-07-23T00:40:19;96680.78;;;22.02;61.34
48778;BME280;34578;0.000;0.000;2022-07-23T00:45:20;96682.44;;;22.04;61.16
48778;BME280;34578;0.000;0.000;2022-07-23T00:50:20;96644.06;;;22.13;61.94
48778;BME280;34578;0.000;0.000;2022-07-23T00:55:21;96641.13;;;22.36;61.31
48778;BME280;34578;0.000;0.000;2022-07-23T01:00:21;96639.53;;;22.30;60.79
48778;BME280;34578;0.000;0.000;2022-07-23T01:05:22;96643.16;;;22.17;61.16
48778;BME280;34578;0.000;0.000;2022-07-23T01:10:23;96660.22;;;22.12;61.13
48778;BME280;34578;0.000;0.000;2022-07-23T01:15:34;96679.81;;;22.10;61.16
48778;BME280;34578;0.000;0.000;2022-07-23T01:20:35;96661.19;;;22.07;61.02
48778;BME280;34578;0.000;0.000;2022-07-23T01:25:36;96639.97;;;22.03;61.22
48778;BME280;34578;0.000;0.000;2022-07-23T01:30:38;96614.47;;;22.05;62.04
48778;BME280;34578;0.000;0.000;2022-07-23T01:35:41;96614.91;;;22.29;62.06
48778;BME280;34578;0.000;0.000;2022-07-23T01:40:42;96619.88;;;22.37;60.57
48778;BME280;34578;0.000;0.000;2022-07-23T01:45:44;96593.84;;;22.18;61.21
48778;BME280;34578;0.000;0.000;2022-07-23T01:50:47;96620.28;;;22.13;61.43
48778;BME280;34578;0.000;0.000;2022-07-23T01:56:10;96613.63;;;22.04;61.31
48778;BME280;34578;0.000;0.000;2022-07-23T02:01:11;96617.91;;;22.02;61.11
48778;BME280;34578;0.000;0.000;2022-07-23T02:06:11;96622.16;;;22.02;60.96
48778;BME280;34578;0.000;0.000;2022-07-23T02:11:12;96629.72;;;22.06;61.17
48778;BME280;34578;0.000;0.000;2022-07-23T02:16:12;96621.81;;;22.23;61.81
48778;BME280;34578;0.000;0.000;2022-07-23T02:21:13;96635.13;;;22.40;61.43
48778;BME280;34578;0.000;0.000;2022-07-23T02:26:13;96631.91;;;22.29;61.10
48778;BME280;34578;0.000;0.000;2022-07-23T02:31:14;96627.00;;;22.18;61.19
48778;BME280;34578;0.000;0.000;2022-07-23T02:36:14;96643.19;;;22.14;61.22
48778;BME280;34578;0.000;0.000;2022-07-23T02:41:15;96670.44;;;22.12;61.22
48778;BME280;34578;0.000;0.000;2022-07-23T02:46:16;96639.03;;;22.07;61.09
48778;BME280;34578;0.000;0.000;2022-07-23T02:51:17;96646.69;;;22.07;61.05
48778;BME280;34578;0.000;0.000;2022-07-23T02:56:25;96669.63;;;22.09;62.06
48778;BME280;34578;0.000;0.000;2022-07-23T03:01:26;96673.50;;;22.32;61.60
48778;BME280;34578;0.000;0.000;2022-07-23T03:06:26;96655.69;;;22.31;60.50
48778;BME280;34578;0.000;0.000;2022-07-23T03:11:27;96663.50;;;22.20;61.34
48778;BME280;34578;0.000;0.000;2022-07-23T03:16:27;96704.31;;;22.20;61.47
48778;BME280;34578;0.000;0.000;2022-07-23T03:21:28;96725.59;;;22.16;61.26
48778;BME280;34578;0.000;0.000;2022-07-23T03:26:28;96711.22;;;22.12;61.24
48778;BME280;34578;0.000;0.000;2022-07-23T03:31:30;96743.56;;;22.10;61.13
48778;BME280;34578;0.000;0.000;2022-07-23T03:36:31;96710.50;;;22.04;61.15
48778;BME280;34578;0.000;0.000;2022-07-23T03:41:32;96752.03;;;22.14;62.97
48778;BME280;34578;0.000;0.000;2022-07-23T03:46:33;96755.94;;;22.36;61.83
48778;BME280;34578;0.000;0.000;2022-07-23T03:51:33;96751.69;;;22.36;60.73
48778;BME280;34578;0.000;0.000;2022-07-23T03:56:34;96733.19;;;22.21;61.15
48778;BME280;34578;0.000;0.000;2022-07-23T04:01:34;96742.69;;;22.13;61.21
48778;BME280;34578;0.000;0.000;2022-07-23T04:06:35;96737.63;;;22.10;61.39
48778;BME280;34578;0.000;0.000;2022-07-23T04:11:35;96721.50;;;22.06;61.33
48778;BME280;34578;0.000;0.000;2022-07-23T04:16:36;96723.84;;;22.23;60.95
48778;BME280;34578;0.000;0.000;2022-07-23T04:21:36;96727.28;;;22.19;61.22
48778;BME280;34578;0.000;0.000;2022-07-23T04:26:37;96717.00;;;22.26;62.15
48778;BME280;34578;0.000;0.000;2022-07-23T04:31:38;96736.28;;;22.45;61.55
48778;BME280;34578;0.000;0.000;2022-07-23T04:36:39;96729.50;;;22.43;60.29
48778;BME280;34578;0.000;0.000;2022-07-23T04:41:40;96734.78;;;22.29;60.47
48778;BME280;34578;0.000;0.000;2022-07-23T04:46:40;96736.53;;;22.26;60.74
48778;BME280;34578;0.000;0.000;2022-07-23T04:51:42;96742.19;;;22.47;62.34
48778;BME280;34578;0.000;0.000;2022-07-23T04:56:42;96727.88;;;22.36;61.00
48778;BME280;34578;0.000;0.000;2022-07-23T05:01:43;96737.88;;;22.52;61.35
48778;BME280;34578;0.000;0.000;2022-07-23T05:06:44;96751.59;;;22.45;61.02
48778;BME280;34578;0.000;0.000;2022-07-23T05:11:44;96761.41;;;22.69;61.72
48778;BME280;34578;0.000;0.000;2022-07-23T05:16:45;96750.19;;;22.78;61.32
48778;BME280;34578;0.000;0.000;2022-07-23T05:21:52;96749.63;;;22.62;61.35
48778;BME280;34578;0.000;0.000;2022-07-23T05:26:52;96746.34;;;22.54;60.86
48778;BME280;34578;0.000;0.000;2022-07-23T05:31:53;96737.91;;;22.49;61.40
48778;BME280;34578;0.000;0.000;2022-07-23T05:36:54;96745.56;;;22.49;62.72
48778;BME280;34578;0.000;0.000;2022-07-23T05:41:54;96747.06;;;22.61;62.90
48778;BME280;34578;0.000;0.000;2022-07-23T05:46:55;96742.13;;;22.50;62.58
48778;BME280;34578;0.000;0.000;2022-07-23T05:51:58;96733.53;;;22.57;64.01
48778;BME280;34578;0.000;0.000;2022-07-23T05:57:13;96752.09;;;22.65;64.43
48778;BME280;34578;0.000;0.000;2022-07-23T06:02:14;96756.25;;;22.72;63.85
48778;BME280;34578;0.000;0.000;2022-07-23T06:07:14;96755.53;;;22.64;64.19
48778;BME280;34578;0.000;0.000;2022-07-23T06:12:18;96764.78;;;22.71;64.19
48778;BME280;34578;0.000;0.000;2022-07-23T06:17:19;96776.66;;;22.74;64.31
48778;BME280;34578;0.000;0.000;2022-07-23T06:22:19;96775.88;;;22.69;63.41
48778;BME280;34578;0.000;0.000;2022-07-23T06:27:20;96771.63;;;22.69;65.19
48778;BME280;34578;0.000;0.000;2022-07-23T06:32:20;96772.44;;;22.70;65.38
48778;BME280;34578;0.000;0.000;2022-07-23T06:37:21;96779.50;;;22.56;62.33
48778;BME280;34578;0.000;0.000;2022-07-23T06:42:21;96769.97;;;22.65;64.96
48778;BME280;34578;0.000;0.000;2022-07-23T06:47:30;96785.03;;;22.82;64.95
48778;BME280;34578;0.000;0.000;2022-07-23T06:52:30;96771.50;;;22.75;65.08
48778;BME280;34578;0.000;0.000;2022-07-23T06:57:31;96778.81;;;22.98;64.88
48778;BME280;34578;0.000;0.000;2022-07-23T07:02:31;96792.72;;;22.80;64.01
48778;BME280;34578;0.000;0.000;2022-07-23T07:07:32;96799.66;;;22.72;63.88
48778;BME280;34578;0.000;0.000;2022-07-23T07:12:32;96797.47;;;22.48;63.15
48778;BME280;34578;0.000;0.000;2022-07-23T07:17:33;96807.84;;;22.33;63.17
48778;BME280;34578;0.000;0.000;2022-07-23T07:22:33;96807.22;;;22.78;63.91
48778;BME280;34578;0.000;0.000;2022-07-23T07:27:34;96805.47;;;22.80;63.76
48778;BME280;34578;0.000;0.000;2022-07-23T07:32:34;96821.88;;;22.66;62.21
48778;BME280;34578;0.000;0.000;2022-07-23T07:37:36;96837.25;;;22.61;63.86
48778;BME280;34578;0.000;0.000;2022-07-23T07:42:47;96844.84;;;22.67;64.33
48778;BME280;34578;0.000;0.000;2022-07-23T07:47:49;96844.84;;;22.64;64.73
48778;BME280;34578;0.000;0.000;2022-07-23T07:52:49;96843.44;;;22.45;62.62
48778;BME280;34578;0.000;0.000;2022-07-23T07:57:50;96846.88;;;22.41;62.83
48778;BME280;34578;0.000;0.000;2022-07-23T08:02:51;96854.25;;;22.62;64.24
48778;BME280;34578;0.000;0.000;2022-07-23T08:07:52;96853.31;;;22.69;64.01
48778;BME280;34578;0.000;0.000;2022-07-23T08:12:55;96839.94;;;22.52;63.09
48778;BME280;34578;0.000;0.000;2022-07-23T08:17:57;96854.53;;;22.40;62.64
48778;BME280;34578;0.000;0.000;2022-07-23T08:23:02;96842.72;;;22.33;62.31
48778;BME280;34578;0.000;0.000;2022-07-23T08:28:05;96860.59;;;22.31;61.78
48778;BME280;34578;0.000;0.000;2022-07-23T08:33:08;96871.66;;;22.29;62.81
48778;BME280;34578;0.000;0.000;2022-07-23T08:38:12;96855.59;;;22.25;62.80
48778;BME280;34578;0.000;0.000;2022-07-23T08:43:19;96862.03;;;22.53;64.82
48778;BME280;34578;0.000;0.000;2022-07-23T08:48:23;96854.25;;;22.61;63.96
48778;BME280;34578;0.000;0.000;2022-07-23T08:53:25;96860.34;;;22.52;62.55
48778;BME280;34578;0.000;0.000;2022-07-23T08:58:26;96850.31;;;22.36;62.08
48778;BME280;34578;0.000;0.000;2022-07-23T09:03:34;96837.00;;;22.14;62.50
48778;BME280;34578;0.000;0.000;2022-07-23T09:13:50;96848.78;;;22.24;63.67
48778;BME280;34578;0.000;0.000;2022-07-23T09:18:57;96852.66;;;22.54;63.49
48778;BME280;34578;0.000;0.000;2022-07-23T09:24:00;96859.41;;;22.59;63.09
48778;BME280;34578;0.000;0.000;2022-07-23T09:29:16;96853.66;;;22.45;62.08
48778;BME280;34578;0.000;0.000;2022-07-23T09:34:23;96860.59;;;22.31;61.86
48778;BME280;34578;0.000;0.000;2022-07-23T09:39:29;96857.34;;;22.20;61.64
48778;BME280;34578;0.000;0.000;2022-07-23T09:44:30;96860.78;;;22.16;61.80
48778;BME280;34578;0.000;0.000;2022-07-23T09:49:30;96862.50;;;22.17;62.01
48778;BME280;34578;0.000;0.000;2022-07-23T09:54:38;96863.84;;;22.45;62.85
48778;BME280;34578;0.000;0.000;2022-07-23T09:59:40;96849.16;;;22.61;61.41
48778;BME280;34578;0.000;0.000;2022-07-23T10:04:41;96853.66;;;22.45;61.31
48778;BME280;34578;0.000;0.000;2022-07-23T10:09:51;96870.84;;;22.28;61.58
48778;BME280;34578;0.000;0.000;2022-07-23T10:15:11;96876.06;;;22.19;62.40
48778;BME280;34578;0.000;0.000;2022-07-23T10:20:12;96879.38;;;22.27;62.28
48778;BME280;34578;0.000;0.000;2022-07-23T10:30:26;96886.81;;;22.45;63.37
48778;BME280;34578;0.000;0.000;2022-07-23T10:36:01;96881.47;;;22.63;62.01
48778;BME280;34578;0.000;0.000;2022-07-23T10:41:04;96872.31;;;22.47;61.65
48778;BME280;34578;0.000;0.000;2022-07-23T10:46:23;96875.03;;;22.34;61.83
48778;BME280;34578;0.000;0.000;2022-07-23T10:51:34;96880.94;;;22.37;63.57
48778;BME280;34578;0.000;0.000;2022-07-23T11:02:22;96887.91;;;22.23;61.89
48778;BME280;34578;0.000;0.000;2022-07-23T11:07:23;96886.88;;;22.41;62.85
48778;BME280;34578;0.000;0.000;2022-07-23T11:12:31;96890.81;;;22.64;61.83
48778;BME280;34578;0.000;0.000;2022-07-23T11:17:34;96882.38;;;22.59;61.38
48778;BME280;34578;0.000;0.000;2022-07-23T11:27:45;96889.44;;;22.36;62.33
48778;BME280;34578;0.000;0.000;2022-07-23T11:32:45;96877.69;;;22.25;62.31
48778;BME280;34578;0.000;0.000;2022-07-23T11:37:47;96885.34;;;22.26;61.95
48778;BME280;34578;0.000;0.000;2022-07-23T11:42:51;96887.91;;;22.23;61.93
48778;BME280;34578;0.000;0.000;2022-07-23T11:47:52;96884.13;;;22.54;62.49
48778;BME280;34578;0.000;0.000;2022-07-23T11:52:54;96872.00;;;22.70;61.17
48778;BME280;34578;0.000;0.000;2022-07-23T11:57:55;96875.69;;;22.49;62.28
48778;BME280;34578;0.000;0.000;2022-07-23T12:02:58;96879.19;;;22.39;61.62
48778;BME280;34578;0.000;0.000;2022-07-23T12:08:03;96873.34;;;22.31;61.79
48778;BME280;34578;0.000;0.000;2022-07-23T12:13:08;96876.66;;;22.38;63.37
48778;BME280;34578;0.000;0.000;2022-07-23T12:18:12;96870.84;;;22.28;61.90
48778;BME280;34578;0.000;0.000;2022-07-23T12:23:14;96870.38;;;22.66;63.34
48778;BME280;34578;0.000;0.000;2022-07-23T12:33:36;96871.84;;;22.80;61.52
48778;BME280;34578;0.000;0.000;2022-07-23T12:38:42;96863.59;;;22.63;63.46
48778;BME280;34578;0.000;0.000;2022-07-23T12:43:45;96867.16;;;22.52;63.32
48778;BME280;34578;0.000;0.000;2022-07-23T12:53:52;96856.22;;;22.39;62.22
48778;BME280;34578;0.000;0.000;2022-07-23T13:09:04;96865.00;;;22.82;63.65
48778;BME280;34578;0.000;0.000;2022-07-23T13:14:05;96857.63;;;22.64;63.15
48778;BME280;34578;0.000;0.000;2022-07-23T13:19:06;96844.25;;;22.47;62.98
48778;BME280;34578;0.000;0.000;2022-07-23T13:24:09;96845.13;;;22.46;64.37
48778;BME280;34578;0.000;0.000;2022-07-23T13:29:09;96852.84;;;22.39;63.68
48778;BME280;34578;0.000;0.000;2022-07-23T13:34:10;96845.22;;;22.37;63.23
48778;BME280;34578;0.000;0.000;2022-07-23T13:39:11;96838.88;;;22.67;63.03
48778;BME280;34578;0.000;0.000;2022-07-23T13:44:11;96836.03;;;22.86;62.37
48778;BME280;34578;0.000;0.000;2022-07-23T13:49:11;96838.94;;;22.64;61.94
48778;BME280;34578;0.000;0.000;2022-07-23T13:54:12;96848.50;;;22.48;62.23
48778;BME280;34578;0.000;0.000;2022-07-23T13:59:12;96840.06;;;22.43;62.39
48778;BME280;34578;0.000;0.000;2022-07-23T14:04:12;96840.06;;;22.40;62.50
48778;BME280;34578;0.000;0.000;2022-07-23T14:09:13;96841.78;;;22.38;62.73
48778;BME280;34578;0.000;0.000;2022-07-23T14:14:13;96844.13;;;22.56;63.69
48778;BME280;34578;0.000;0.000;2022-07-23T14:19:14;96835.25;;;22.80;63.03
48778;BME280;34578;0.000;0.000;2022-07-23T14:24:15;96834.50;;;22.76;62.02
48778;BME280;34578;0.000;0.000;2022-07-23T14:29:15;96839.88;;;22.55;62.11
48778;BME280;34578;0.000;0.000;2022-07-23T14:34:16;96831.53;;;22.44;62.02
48778;BME280;34578;0.000;0.000;2022-07-23T14:39:16;96827.31;;;22.42;62.34
48778;BME280;34578;0.000;0.000;2022-07-23T14:44:17;96823.06;;;22.39;62.41
48778;BME280;34578;0.000;0.000;2022-07-23T14:49:18;96825.69;;;22.36;62.65
48778;BME280;34578;0.000;0.000;2022-07-23T14:54:18;96833.81;;;22.64;63.48
48778;BME280;34578;0.000;0.000;2022-07-23T14:59:20;96826.63;;;22.87;62.72
48778;BME280;34578;0.000;0.000;2022-07-23T15:04:20;96832.78;;;22.75;61.53
48778;BME280;34578;0.000;0.000;2022-07-23T15:09:21;96834.72;;;22.58;61.87
48778;BME280;34578;0.000;0.000;2022-07-23T15:14:21;96837.34;;;22.54;61.72
48778;BME280;34578;0.000;0.000;2022-07-23T15:19:22;96844.25;;;22.46;62.12
48778;BME280;34578;0.000;0.000;2022-07-23T15:24:23;96853.66;;;22.45;62.25
48778;BME280;34578;0.000;0.000;2022-07-23T15:29:23;96833.72;;;22.70;62.30
48778;BME280;34578;0.000;0.000;2022-07-23T15:34:24;96831.78;;;22.85;61.39
48778;BME280;34578;0.000;0.000;2022-07-23T15:39:25;96842.28;;;22.67;61.59
48778;BME280;34578;0.000;0.000;2022-07-23T15:44:25;96837.38;;;22.52;62.13
48778;BME280;34578;0.000;0.000;2022-07-23T15:49:27;96848.50;;;22.48;62.04
48778;BME280;34578;0.000;0.000;2022-07-23T15:54:27;96844.31;;;22.43;62.25
48778;BME280;34578;0.000;0.000;2022-07-23T15:59:28;96841.78;;;22.41;62.21
48778;BME280;34578;0.000;0.000;2022-07-23T16:04:28;96839.16;;;22.47;63.67
48778;BME280;34578;0.000;0.000;2022-07-23T16:09:29;96833.63;;;22.77;62.02
48778;BME280;34578;0.000;0.000;2022-07-23T16:14:29;96829.25;;;22.85;61.12
48778;BME280;34578;0.000;0.000;2022-07-23T16:19:30;96839.75;;;22.64;61.37
48778;BME280;34578;0.000;0.000;2022-07-23T16:24:30;96823.84;;;22.47;61.79
48778;BME280;34578;0.000;0.000;2022-07-23T16:29:30;96823.09;;;22.42;61.98
48778;BME280;34578;0.000;0.000;2022-07-23T16:34:31;96840.03;;;22.46;61.87
48778;BME280;34578;0.000;0.000;2022-07-23T16:39:31;96830.69;;;22.45;61.78
48778;BME280;34578;0.000;0.000;2022-07-23T16:44:32;96831.47;;;22.49;62.76
48778;BME280;34578;0.000;0.000;2022-07-23T16:49:32;96827.63;;;22.78;64.49
48778;BME280;34578;0.000;0.000;2022-07-23T16:54:34;96827.34;;;22.96;61.56
48778;BME280;34578;0.000;0.000;2022-07-23T16:59:35;96831.06;;;22.77;62.48
48778;BME280;34578;0.000;0.000;2022-07-23T17:04:35;96838.06;;;22.63;61.63
48778;BME280;34578;0.000;0.000;2022-07-23T17:09:36;96831.41;;;22.53;61.70
48778;BME280;34578;0.000;0.000;2022-07-23T17:14:37;96833.09;;;22.54;62.26
48778;BME280;34578;0.000;0.000;2022-07-23T17:19:38;96830.13;;;22.83;61.43
48778;BME280;34578;0.000;0.000;2022-07-23T17:24:38;96826.53;;;22.94;60.38
48778;BME280;34578;0.000;0.000;2022-07-23T17:29:38;96826.84;;;22.73;61.47
48778;BME280;34578;0.000;0.000;2022-07-23T17:34:40;96831.34;;;22.59;61.26
48778;BME280;34578;0.000;0.000;2022-07-23T17:39:40;96829.75;;;22.52;61.50
48778;BME280;34578;0.000;0.000;2022-07-23T17:44:40;96845.03;;;22.52;61.63
48778;BME280;34578;0.000;0.000;2022-07-23T17:49:41;96842.91;;;22.81;61.69
48778;BME280;34578;0.000;0.000;2022-07-23T17:54:41;96844.41;;;22.94;60.79
48778;BME280;34578;0.000;0.000;2022-07-23T17:59:41;96849.00;;;22.73;61.06
48778;BME280;34578;0.000;0.000;2022-07-23T18:04:42;96854.25;;;22.64;61.08
48778;BME280;34578;0.000;0.000;2022-07-23T18:09:42;96850.97;;;22.56;61.50
48778;BME280;34578;0.000;0.000;2022-07-23T18:14:43;96860.25;;;22.60;63.03
48778;BME280;34578;0.000;0.000;2022-07-23T18:19:43;96873.50;;;22.84;62.32
48778;BME280;34578;0.000;0.000;2022-07-23T18:24:44;96867.28;;;23.02;61.12
48778;BME280;34578;0.000;0.000;2022-07-23T18:29:45;96869.22;;;22.86;60.92
48778;BME280;34578;0.000;0.000;2022-07-23T18:34:45;96875.47;;;22.67;61.38
48778;BME280;34578;0.000;0.000;2022-07-23T18:39:45;96886.63;;;22.59;61.27
48778;BME280;34578;0.000;0.000;2022-07-23T18:44:46;96885.88;;;22.52;61.26
48778;BME280;34578;0.000;0.000;2022-07-23T18:49:46;96891.47;;;22.77;62.02
48778;BME280;34578;0.000;0.000;2022-07-23T18:54:46;96898.84;;;22.96;61.44
48778;BME280;34578;0.000;0.000;2022-07-23T18:59:47;96899.06;;;22.81;63.25
48778;BME280;34578;0.000;0.000;2022-07-23T19:04:47;96912.00;;;22.69;61.31
48778;BME280;34578;0.000;0.000;2022-07-23T19:09:48;96929.97;;;22.62;61.21
48778;BME280;34578;0.000;0.000;2022-07-23T19:14:48;96929.22;;;22.54;61.36
48778;BME280;34578;0.000;0.000;2022-07-23T19:19:49;96940.22;;;22.60;62.14
48778;BME280;34578;0.000;0.000;2022-07-23T19:24:49;96949.19;;;22.87;63.00
48778;BME280;34578;0.000;0.000;2022-07-23T19:29:49;96946.56;;;22.94;61.06
48778;BME280;34578;0.000;0.000;2022-07-23T19:34:50;96961.31;;;22.73;61.42
48778;BME280;34578;0.000;0.000;2022-07-23T19:39:51;96962.31;;;22.61;61.40
48778;BME280;34578;0.000;0.000;2022-07-23T19:44:51;96971.72;;;22.59;61.39
48778;BME280;34578;0.000;0.000;2022-07-23T19:49:53;96972.34;;;22.73;62.09
48778;BME280;34578;0.000;0.000;2022-07-23T19:54:53;96985.69;;;22.96;62.89
48778;BME280;34578;0.000;0.000;2022-07-23T19:59:53;97001.06;;;22.90;61.32
48778;BME280;34578;0.000;0.000;2022-07-23T20:04:54;96998.75;;;22.72;61.13
48778;BME280;34578;0.000;0.000;2022-07-23T20:09:54;97005.66;;;22.63;61.15
48778;BME280;34578;0.000;0.000;2022-07-23T20:14:54;97008.31;;;22.57;61.36
48778;BME280;34578;0.000;0.000;2022-07-23T20:19:55;97012.50;;;22.62;62.44
48778;BME280;34578;0.000;0.000;2022-07-23T20:24:55;97021.53;;;22.87;61.38
48778;BME280;34578;0.000;0.000;2022-07-23T20:29:56;97008.78;;;22.87;60.71
48778;BME280;34578;0.000;0.000;2022-07-23T20:34:56;97025.09;;;22.74;61.07
48778;BME280;34578;0.000;0.000;2022-07-23T20:39:57;97030.31;;;22.65;61.05
48778;BME280;34578;0.000;0.000;2022-07-23T20:44:57;97027.81;;;22.61;61.15
48778;BME280;34578;0.000;0.000;2022-07-23T20:49:57;97032.97;;;22.56;61.26
48778;BME280;34578;0.000;0.000;2022-07-23T20:54:58;97032.81;;;22.70;61.55
48778;BME280;34578;0.000;0.000;2022-07-23T20:59:58;97029.97;;;22.92;61.14
48778;BME280;34578;0.000;0.000;2022-07-23T21:04:59;97029.97;;;22.94;60.47
48778;BME280;34578;0.000;0.000;2022-07-23T21:09:59;97032.75;;;22.77;60.68
48778;BME280;34578;0.000;0.000;2022-07-23T21:15:00;97028.63;;;22.67;60.91
48778;BME280;34578;0.000;0.000;2022-07-23T21:20:00;97038.03;;;22.62;60.93
48778;BME280;34578;0.000;0.000;2022-07-23T21:25:01;97031.22;;;22.60;61.15
48778;BME280;34578;0.000;0.000;2022-07-23T21:30:02;97039.50;;;22.81;61.14
48778;BME280;34578;0.000;0.000;2022-07-23T21:35:07;97042.69;;;22.98;60.52
48778;BME280;34578;0.000;0.000;2022-07-23T21:40:08;97044.53;;;22.87;60.44
48778;BME280;34578;0.000;0.000;2022-07-23T21:45:09;97042.16;;;22.72;60.70
48778;BME280;34578;0.000;0.000;2022-07-23T21:50:10;97033.72;;;22.64;60.69
48778;BME280;34578;0.000;0.000;2022-07-23T21:55:10;97038.88;;;22.61;60.79
48778;BME280;34578;0.000;0.000;2022-07-23T22:00:19;97031.28;;;22.57;60.89
48778;BME280;34578;0.000;0.000;2022-07-23T22:05:26;97042.03;;;22.84;60.65
48778;BME280;34578;0.000;0.000;2022-07-23T22:10:26;97036.69;;;22.99;59.94
48778;BME280;34578;0.000;0.000;2022-07-23T22:15:27;97039.47;;;22.83;60.44
48778;BME280;34578;0.000;0.000;2022-07-23T22:20:28;97039.59;;;22.71;60.59
48778;BME280;34578;0.000;0.000;2022-07-23T22:25:28;97046.50;;;22.66;60.69
48778;BME280;34578;0.000;0.000;2022-07-23T22:30:29;97044.00;;;22.61;60.88
48778;BME280;34578;0.000;0.000;2022-07-23T22:35:29;97046.56;;;22.58;60.70
48778;BME280;34578;0.000;0.000;2022-07-23T22:40:30;97051.50;;;22.73;60.39
48778;BME280;34578;0.000;0.000;2022-07-23T22:45:30;97045.41;;;22.83;60.32
48778;BME280;34578;0.000;0.000;2022-07-23T22:50:31;97043.84;;;22.73;60.24
48778;BME280;34578;0.000;0.000;2022-07-23T22:55:31;97044.81;;;22.62;60.62
48778;BME280;34578;0.000;0.000;2022-07-23T23:00:32;97034.66;;;22.60;60.70
48778;BME280;34578;0.000;0.000;2022-07-23T23:05:34;97044.00;;;22.61;60.67
48778;BME280;34578;0.000;0.000;2022-07-23T23:10:35;97042.25;;;22.63;60.65
48778;BME280;34578;0.000;0.000;2022-07-23T23:15:35;97039.50;;;22.80;60.34
48778;BME280;34578;0.000;0.000;2022-07-23T23:20:35;97036.91;;;22.84;59.91
48778;BME280;34578;0.000;0.000;2022-07-23T23:25:36;97048.81;;;22.85;60.00
48778;BME280;34578;0.000;0.000;2022-07-23T23:30:36;97050.63;;;22.74;60.26
48778;BME280;34578;0.000;0.000;2022-07-23T23:35:37;97050.69;;;22.71;60.27
48778;BME280;34578;0.000;0.000;2022-07-23T23:40:38;97049.00;;;22.69;60.35
48778;BME280;34578;0.000;0.000;2022-07-23T23:45:38;97058.34;;;22.70;60.29
48778;BME280;34578;0.000;0.000;2022-07-23T23:50:39;97049.75;;;22.77;60.09
48778;BME280;34578;0.000;0.000;2022-07-23T23:55:40;97050.50;;;22.86;59.61
